createdAt,value
2016-06-08T00:01:13.261Z,19.73
2016-06-08T00:02:26.626Z,19.69
2016-06-08T00:03:13.564Z,19.76
2016-06-08T00:04:13.410Z,19.75
2016-06-08T00:05:13.585Z,19.7
2016-06-08T00:06:17.637Z,19.7
2016-06-08T00:07:12.997Z,19.75
2016-06-08T00:08:12.936Z,19.79
2016-06-08T00:09:13.424Z,19.66
2016-06-08T00:10:12.755Z,19.68
2016-06-08T00:11:14.257Z,19.63
2016-06-08T00:12:13.229Z,19.65
2016-06-08T00:13:13.121Z,19.68
2016-06-08T00:14:12.999Z,19.66
2016-06-08T00:15:13.096Z,19.6
2016-06-08T00:16:13.146Z,19.68
2016-06-08T00:17:12.524Z,19.61
2016-06-08T00:18:12.932Z,19.58
2016-06-08T00:19:13.201Z,19.68
2016-06-08T00:20:13.250Z,19.6
2016-06-08T00:21:13.096Z,19.65
2016-06-08T00:22:13.271Z,19.63
2016-06-08T00:23:12.790Z,19.66
2016-06-08T00:24:12.917Z,19.57
2016-06-08T00:25:12.794Z,19.57
2016-06-08T00:26:12.423Z,19.58
2016-06-08T00:27:13.190Z,19.58
2016-06-08T00:28:12.615Z,19.63
2016-06-08T00:29:13.086Z,19.55
2016-06-08T00:30:12.683Z,19.57
2016-06-08T00:31:12.686Z,19.58
2016-06-08T00:32:12.986Z,19.58
2016-06-08T00:33:12.864Z,19.6
2016-06-08T00:34:12.709Z,19.58
2016-06-08T00:35:12.494Z,19.57
2016-06-08T00:36:12.886Z,19.5
2016-06-08T00:37:26.236Z,19.54
2016-06-08T00:38:12.236Z,19.54
2016-06-08T00:39:12.535Z,19.51
2016-06-08T00:40:12.476Z,19.53
2016-06-08T00:41:12.603Z,19.42
2016-06-08T00:42:13.013Z,19.39
2016-06-08T00:43:12.156Z,19.38
2016-06-08T00:44:12.455Z,19.5
2016-06-08T00:45:11.864Z,19.47
2016-06-08T00:46:11.695Z,19.39
2016-06-08T00:47:11.823Z,19.43
2016-06-08T00:48:11.685Z,19.48
2016-06-08T00:49:11.844Z,19.5
2016-06-08T00:50:12.502Z,19.35
2016-06-08T00:51:12.630Z,19.4
2016-06-08T00:52:12.664Z,19.36
2016-06-08T00:53:12.604Z,19.38
2016-06-08T00:54:27.172Z,19.42
2016-06-08T00:55:11.859Z,19.4
2016-06-08T00:56:12.269Z,19.36
2016-06-08T00:57:13.209Z,19.36
2016-06-08T00:58:12.196Z,19.38
2016-06-08T00:59:11.871Z,19.32
2016-06-08T01:00:11.998Z,19.39
2016-06-08T01:01:12.282Z,19.39
2016-06-08T01:02:11.988Z,19.35
2016-06-08T01:03:11.772Z,19.32
2016-06-08T01:04:11.994Z,19.32
2016-06-08T01:05:11.918Z,19.28
2016-06-08T01:06:11.655Z,19.25
2016-06-08T01:07:11.548Z,19.32
2016-06-08T01:08:11.550Z,19.28
2016-06-08T01:09:11.538Z,19.21
2016-06-08T01:10:11.603Z,19.21
2016-06-08T01:11:11.527Z,19.32
2016-06-08T01:12:12.266Z,19.23
2016-06-08T01:13:11.643Z,19.24
2016-06-08T01:14:11.880Z,19.18
2016-06-08T01:15:11.399Z,19.23
2016-06-08T01:16:11.635Z,19.2
2016-06-08T01:17:25.077Z,19.18
2016-06-08T01:18:12.374Z,19.24
2016-06-08T01:19:12.018Z,19.13
2016-06-08T01:20:11.271Z,19.2
2016-06-08T01:21:11.383Z,19.14
2016-06-08T01:22:11.557Z,19.17
2016-06-08T01:23:11.107Z,19.17
2016-06-08T01:24:12.235Z,19.23
2016-06-08T01:25:11.550Z,19.17
2016-06-08T01:26:25.805Z,19.2
2016-06-08T01:27:12.148Z,19.2
2016-06-08T01:28:11.121Z,19.15
2016-06-08T01:29:11.514Z,19.2
2016-06-08T01:30:11.095Z,19.2
2016-06-08T01:31:20.490Z,19.17
2016-06-08T01:32:11.834Z,19.23
2016-06-08T01:33:11.118Z,19.13
2016-06-08T01:34:10.917Z,19.17
2016-06-08T01:35:11.280Z,19.13
2016-06-08T01:36:11.111Z,19.17
2016-06-08T01:37:11.051Z,19.11
2016-06-08T01:38:11.069Z,19.17
2016-06-08T01:39:11.509Z,19.15
2016-06-08T01:40:10.793Z,19.15
2016-06-08T01:41:10.749Z,19.15
2016-06-08T01:42:11.127Z,19.13
2016-06-08T01:43:10.691Z,19.13
2016-06-08T01:44:10.664Z,19.13
2016-06-08T01:45:10.635Z,19.13
2016-06-08T01:46:10.497Z,19.11
2016-06-08T01:47:10.641Z,19.08
2016-06-08T01:48:10.627Z,19.11
2016-06-08T01:49:10.552Z,19.14
2016-06-08T01:50:10.554Z,19.14
2016-06-08T01:51:10.526Z,19.11
2016-06-08T01:52:10.498Z,19.05
2016-06-08T01:53:10.501Z,19.1
2016-06-08T01:54:10.471Z,19.13
2016-06-08T01:55:10.443Z,18.99
2016-06-08T01:56:10.445Z,19.05
2016-06-08T01:57:10.682Z,19.02
2016-06-08T01:58:10.420Z,18.95
2016-06-08T01:59:10.345Z,19.01
2016-06-08T02:00:10.379Z,18.98
2016-06-08T02:01:10.365Z,18.95
2016-06-08T02:02:10.353Z,18.95
2016-06-08T02:03:10.340Z,18.97
2016-06-08T02:04:10.280Z,18.86
2016-06-08T02:05:10.236Z,18.95
2016-06-08T02:06:10.222Z,18.92
2016-06-08T02:07:10.194Z,18.86
2016-06-08T02:08:10.197Z,18.87
2016-06-08T02:09:10.184Z,18.84
2016-06-08T02:10:10.171Z,18.94
2016-06-08T02:11:10.127Z,18.9
2016-06-08T02:12:10.488Z,18.91
2016-06-08T02:13:10.117Z,18.9
2016-06-08T02:14:10.072Z,18.9
2016-06-08T02:15:10.028Z,18.92
2016-06-08T02:16:10.078Z,18.92
2016-06-08T02:17:10.002Z,18.87
2016-06-08T02:18:09.989Z,18.92
2016-06-08T02:19:10.133Z,18.92
2016-06-08T02:20:09.932Z,18.94
2016-06-08T02:21:09.935Z,18.92
2016-06-08T02:22:09.953Z,18.82
2016-06-08T02:23:09.956Z,18.86
2016-06-08T02:24:09.849Z,18.86
2016-06-08T02:25:09.837Z,18.94
2016-06-08T02:26:09.839Z,18.9
2016-06-08T02:27:10.092Z,18.79
2016-06-08T02:28:10.906Z,18.84
2016-06-08T02:29:09.753Z,18.83
2016-06-08T02:30:09.787Z,18.86
2016-06-08T02:31:09.789Z,18.91
2016-06-08T02:32:09.652Z,18.87
2016-06-08T02:33:09.686Z,18.86
2016-06-08T02:34:09.657Z,18.8
2016-06-08T02:35:09.614Z,18.82
2016-06-08T02:36:09.631Z,18.82
2016-06-08T02:37:09.415Z,18.77
2016-06-08T02:38:09.559Z,18.79
2016-06-08T02:39:09.530Z,18.83
2016-06-08T02:40:09.533Z,18.79
2016-06-08T02:41:09.473Z,18.83
2016-06-08T02:42:10.694Z,18.84
2016-06-08T02:43:09.510Z,18.84
2016-06-08T02:44:09.512Z,18.8
2016-06-08T02:45:09.421Z,18.79
2016-06-08T02:46:09.409Z,18.7
2016-06-08T02:47:09.348Z,18.73
2016-06-08T02:48:09.336Z,18.7
2016-06-08T02:49:09.541Z,18.74
2016-06-08T02:50:09.388Z,18.79
2016-06-08T02:51:09.282Z,18.74
2016-06-08T02:52:09.284Z,18.74
2016-06-08T02:53:09.224Z,18.74
2016-06-08T02:54:09.274Z,18.77
2016-06-08T02:55:09.260Z,18.67
2016-06-08T02:56:09.201Z,18.74
2016-06-08T02:57:10.282Z,18.68
2016-06-08T02:58:09.143Z,18.74
2016-06-08T02:59:09.115Z,18.77
2016-06-08T03:00:09.086Z,18.64
2016-06-08T03:01:09.401Z,18.74
2016-06-08T03:02:12.108Z,18.7
2016-06-08T03:03:09.047Z,18.74
2016-06-08T03:04:09.035Z,18.77
2016-06-08T03:05:09.006Z,18.74
2016-06-08T03:06:08.962Z,18.72
2016-06-08T03:07:08.950Z,18.74
2016-06-08T03:08:08.936Z,18.73
2016-06-08T03:09:08.923Z,18.73
2016-06-08T03:10:08.895Z,18.73
2016-06-08T03:11:08.881Z,18.74
2016-06-08T03:12:08.884Z,18.7
2016-06-08T03:13:09.466Z,18.73
2016-06-08T03:14:08.796Z,18.72
2016-06-08T03:15:08.642Z,18.76
2016-06-08T03:16:08.785Z,18.77
2016-06-08T03:17:08.741Z,18.73
2016-06-08T03:18:08.745Z,18.76
2016-06-08T03:19:08.716Z,18.74
2016-06-08T03:20:08.531Z,18.72
2016-06-08T03:21:08.658Z,18.7
2016-06-08T03:22:08.661Z,18.77
2016-06-08T03:23:08.617Z,18.76
2016-06-08T03:24:08.635Z,18.73
2016-06-08T03:25:08.623Z,18.65
2016-06-08T03:26:08.547Z,18.76
2016-06-08T03:27:08.394Z,18.72
2016-06-08T03:28:08.521Z,18.72
2016-06-08T03:29:08.946Z,18.7
2016-06-08T03:30:08.495Z,18.73
2016-06-08T03:31:08.482Z,18.77
2016-06-08T03:32:08.281Z,18.72
2016-06-08T03:33:08.425Z,18.68
2016-06-08T03:34:08.241Z,18.72
2016-06-08T03:35:08.400Z,18.74
2016-06-08T03:36:08.371Z,18.74
2016-06-08T03:37:08.436Z,18.73
2016-06-08T03:38:08.314Z,18.73
2016-06-08T03:39:08.286Z,18.68
2016-06-08T03:40:08.256Z,18.65
2016-06-08T03:41:08.275Z,18.68
2016-06-08T03:42:08.762Z,18.72
2016-06-08T03:43:08.765Z,18.72
2016-06-08T03:44:08.189Z,18.67
2016-06-08T03:45:08.177Z,18.7
2016-06-08T03:46:08.211Z,18.58
2016-06-08T03:47:08.135Z,18.76
2016-06-08T03:48:08.105Z,18.72
2016-06-08T03:49:08.125Z,18.59
2016-06-08T03:50:08.111Z,18.65
2016-06-08T03:51:08.083Z,18.72
2016-06-08T03:52:08.054Z,18.72
2016-06-08T03:53:08.057Z,18.7
2016-06-08T03:54:08.013Z,18.65
2016-06-08T03:55:08.032Z,18.65
2016-06-08T03:56:08.034Z,18.74
2016-06-08T03:57:08.302Z,18.72
2016-06-08T03:58:08.242Z,18.68
2016-06-08T03:59:07.715Z,18.77
2016-06-08T04:00:07.858Z,18.73
2016-06-08T04:01:07.845Z,18.73
2016-06-08T04:02:07.815Z,18.7
2016-06-08T04:03:07.787Z,18.79
2016-06-08T04:04:07.790Z,18.82
2016-06-08T04:05:07.745Z,18.74
2016-06-08T04:06:07.748Z,18.7
2016-06-08T04:07:07.689Z,18.76
2016-06-08T04:08:07.692Z,18.7
2016-06-08T04:09:08.037Z,18.79
2016-06-08T04:10:07.650Z,18.82
2016-06-08T04:11:07.653Z,18.82
2016-06-08T04:12:07.670Z,18.86
2016-06-08T04:13:08.220Z,18.82
2016-06-08T04:14:07.550Z,18.86
2016-06-08T04:15:07.570Z,18.84
2016-06-08T04:16:07.557Z,18.87
2016-06-08T04:17:07.513Z,18.92
2016-06-08T04:18:07.468Z,18.9
2016-06-08T04:19:07.455Z,18.9
2016-06-08T04:20:07.442Z,18.92
2016-06-08T04:21:07.429Z,18.91
2016-06-08T04:22:07.401Z,18.92
2016-06-08T04:23:07.372Z,18.86
2016-06-08T04:24:07.375Z,18.92
2016-06-08T04:25:07.346Z,18.91
2016-06-08T04:26:07.333Z,18.94
2016-06-08T04:27:07.915Z,18.86
2016-06-08T04:28:07.338Z,18.87
2016-06-08T04:29:07.248Z,18.97
2016-06-08T04:30:07.218Z,18.91
2016-06-08T04:31:07.238Z,18.98
2016-06-08T04:32:07.210Z,18.91
2016-06-08T04:33:07.181Z,18.92
2016-06-08T04:34:07.184Z,19.01
2016-06-08T04:35:07.170Z,19.01
2016-06-08T04:36:07.110Z,18.91
2016-06-08T04:37:07.097Z,18.95
2016-06-08T04:38:07.069Z,18.95
2016-06-08T04:39:07.040Z,18.99
2016-06-08T04:40:07.012Z,19.06
2016-06-08T04:41:07.014Z,19.08
2016-06-08T04:42:07.470Z,19.15
2016-06-08T04:43:07.098Z,19.2
2016-06-08T04:44:06.944Z,19.15
2016-06-08T04:45:06.931Z,19.2
2016-06-08T04:46:07.449Z,19.18
2016-06-08T04:47:06.937Z,19.2
2016-06-08T04:48:06.706Z,19.17
2016-06-08T04:49:06.817Z,19.18
2016-06-08T04:50:06.944Z,19.14
2016-06-08T04:51:06.791Z,19.18
2016-06-08T04:52:06.810Z,19.31
2016-06-08T04:53:06.765Z,19.25
2016-06-08T04:54:06.738Z,19.25
2016-06-08T04:55:06.708Z,19.2
2016-06-08T04:56:06.696Z,19.29
2016-06-08T04:57:06.651Z,19.32
2016-06-08T04:58:07.451Z,19.31
2016-06-08T04:59:06.657Z,19.32
2016-06-08T05:00:06.659Z,19.38
2016-06-08T05:01:06.584Z,19.42
2016-06-08T05:02:06.601Z,19.43
2016-06-08T05:03:06.870Z,19.36
2016-06-08T05:04:06.530Z,19.38
2016-06-08T05:05:06.595Z,19.51
2016-06-08T05:06:06.488Z,19.47
2016-06-08T05:07:06.462Z,19.46
2016-06-08T05:08:06.459Z,19.4
2016-06-08T05:09:06.458Z,19.38
2016-06-08T05:10:06.439Z,19.4
2016-06-08T05:11:06.437Z,19.47
2016-06-08T05:12:06.463Z,19.38
2016-06-08T05:13:06.454Z,19.53
2016-06-08T05:14:06.382Z,19.47
2016-06-08T05:15:06.217Z,19.51
2016-06-08T05:16:06.410Z,19.42
2016-06-08T05:17:06.323Z,19.6
2016-06-08T05:18:06.342Z,19.55
2016-06-08T05:19:06.331Z,19.46
2016-06-08T05:20:06.272Z,19.46
2016-06-08T05:21:06.323Z,19.63
2016-06-08T05:22:06.233Z,19.57
2016-06-08T05:23:06.095Z,19.54
2016-06-08T05:24:06.224Z,19.61
2016-06-08T05:25:06.180Z,19.57
2016-06-08T05:26:06.230Z,19.63
2016-06-08T05:27:06.170Z,19.55
2016-06-08T05:28:06.111Z,19.66
2016-06-08T05:29:06.145Z,19.57
2016-06-08T05:30:06.085Z,19.58
2016-06-08T05:31:06.073Z,19.54
2016-06-08T05:32:06.045Z,19.55
2016-06-08T05:33:06.063Z,19.46
2016-06-08T05:34:05.879Z,19.58
2016-06-08T05:35:05.818Z,19.55
2016-06-08T05:36:05.977Z,19.46
2016-06-08T05:37:05.948Z,19.58
2016-06-08T05:38:19.796Z,19.65
2016-06-08T05:39:05.798Z,19.61
2016-06-08T05:40:05.878Z,19.55
2016-06-08T05:41:05.773Z,19.61
2016-06-08T05:42:05.947Z,19.6
2016-06-08T05:43:06.793Z,19.69
2016-06-08T05:44:06.498Z,19.65
2016-06-08T05:45:06.376Z,19.73
2016-06-08T05:46:05.864Z,19.79
2016-06-08T05:47:05.961Z,19.8
2016-06-08T05:48:06.463Z,19.7
2016-06-08T05:49:05.809Z,19.79
2016-06-08T05:50:05.781Z,19.66
2016-06-08T05:51:05.861Z,19.8
2016-06-08T05:52:05.786Z,19.8
2016-06-08T05:53:05.805Z,19.87
2016-06-08T05:54:05.838Z,19.91
2016-06-08T05:55:05.747Z,19.9
2016-06-08T05:56:05.812Z,19.94
2016-06-08T05:57:05.753Z,19.94
2016-06-08T06:00:06.979Z,19.88
2016-06-08T06:01:06.779Z,19.91
2016-06-08T06:02:20.110Z,19.9
2016-06-08T06:03:19.299Z,19.88
2016-06-08T06:04:20.240Z,19.88
2016-06-08T06:05:20.664Z,19.98
2016-06-08T06:06:33.374Z,19.94
2016-06-08T06:07:22.030Z,20.02
2016-06-08T06:08:19.204Z,19.98
2016-06-08T06:09:19.175Z,19.98
2016-06-08T06:10:19.131Z,20.05
2016-06-08T06:11:19.415Z,19.95
2016-06-08T06:12:19.089Z,20.03
2016-06-08T06:13:19.342Z,20.03
2016-06-08T06:14:19.142Z,20
2016-06-08T06:15:19.036Z,20.02
2016-06-08T06:16:19.023Z,20.08
2016-06-08T06:17:06.431Z,20.09
2016-06-08T06:18:18.981Z,20.13
2016-06-08T06:19:18.967Z,20.1
2016-06-08T06:20:08.174Z,20.09
2016-06-08T06:21:08.098Z,20.15
2016-06-08T06:22:08.194Z,20.09
2016-06-08T06:23:08.416Z,20.13
2016-06-08T06:24:08.153Z,20.2
2016-06-08T06:25:07.906Z,20.18
2016-06-08T06:26:07.971Z,20.15
2016-06-08T06:27:05.708Z,20.15
2016-06-08T06:28:05.399Z,20.21
2016-06-08T06:29:05.416Z,20.2
2016-06-08T06:30:05.529Z,20.31
2016-06-08T06:31:05.812Z,20.25
2016-06-08T06:32:05.768Z,20.31
2016-06-08T06:33:05.741Z,20.24
2016-06-08T06:34:04.946Z,20.28
2016-06-08T06:35:04.823Z,20.27
2016-06-08T06:36:05.999Z,20.27
2016-06-08T06:37:04.813Z,20.3
2016-06-08T06:38:04.801Z,20.34
2016-06-08T06:39:04.771Z,20.33
2016-06-08T06:40:04.868Z,20.41
2016-06-08T06:41:04.777Z,20.38
2016-06-08T06:42:04.826Z,20.39
2016-06-08T06:43:04.814Z,20.34
2016-06-08T06:44:04.739Z,20.42
2016-06-08T06:45:04.726Z,20.39
2016-06-08T06:46:04.712Z,20.42
2016-06-08T06:47:04.684Z,20.42
2016-06-08T06:48:04.671Z,20.39
2016-06-08T06:49:04.673Z,20.49
2016-06-08T06:50:04.645Z,20.41
2016-06-08T06:51:04.757Z,20.41
2016-06-08T06:52:05.150Z,20.42
2016-06-08T06:53:04.778Z,20.47
2016-06-08T06:54:04.531Z,20.47
2016-06-08T06:55:04.550Z,20.49
2016-06-08T06:56:04.817Z,20.47
2016-06-08T06:57:04.711Z,20.58
2016-06-08T06:58:05.338Z,20.58
2016-06-08T06:59:04.654Z,20.53
2016-06-08T07:00:04.719Z,20.51
2016-06-08T07:01:05.346Z,20.51
2016-06-08T07:02:05.318Z,20.58
2016-06-08T07:03:04.680Z,20.61
2016-06-08T07:04:05.027Z,20.56
2016-06-08T07:05:04.921Z,20.54
2016-06-08T07:06:04.531Z,20.56
2016-06-08T07:07:04.754Z,20.51
2016-06-08T07:08:04.741Z,20.54
2016-06-08T07:09:04.884Z,20.54
2016-06-08T07:10:04.934Z,20.58
2016-06-08T07:11:04.795Z,20.53
2016-06-08T07:12:04.079Z,20.68
2016-06-08T07:13:04.598Z,20.61
2016-06-08T07:14:05.256Z,20.66
2016-06-08T07:15:03.978Z,20.69
2016-06-08T07:16:03.792Z,20.68
2016-06-08T07:17:03.780Z,20.76
2016-06-08T07:18:03.909Z,20.74
2016-06-08T07:19:03.975Z,20.76
2016-06-08T07:20:03.856Z,20.83
2016-06-08T07:21:03.838Z,20.71
2016-06-08T07:22:03.874Z,20.71
2016-06-08T07:23:03.796Z,20.72
2016-06-08T07:24:03.788Z,20.79
2016-06-08T07:25:03.764Z,20.69
2016-06-08T07:26:03.828Z,20.72
2016-06-08T07:27:03.628Z,20.83
2016-06-08T07:28:04.225Z,20.8
2016-06-08T07:29:03.837Z,20.76
2016-06-08T07:30:07.792Z,20.77
2016-06-08T07:31:03.655Z,20.86
2016-06-08T07:32:03.641Z,20.79
2016-06-08T07:33:07.472Z,20.86
2016-06-08T07:34:05.256Z,20.84
2016-06-08T07:35:04.390Z,20.9
2016-06-08T07:36:03.845Z,20.81
2016-06-08T07:37:04.130Z,20.87
2016-06-08T07:38:04.273Z,20.87
2016-06-08T07:39:03.542Z,20.91
2016-06-08T07:40:03.716Z,20.93
2016-06-08T07:41:03.427Z,20.9
2016-06-08T07:42:03.430Z,20.91
2016-06-08T07:43:03.322Z,20.93
2016-06-08T07:44:03.935Z,20.98
2016-06-08T07:45:03.625Z,21.01
2016-06-08T07:46:03.362Z,21.04
2016-06-08T07:47:03.349Z,21.08
2016-06-08T07:48:20.445Z,21.02
2016-06-08T07:49:03.135Z,21.08
2016-06-08T07:50:03.373Z,21.05
2016-06-08T07:51:03.261Z,21.13
2016-06-08T07:52:03.232Z,21.14
2016-06-08T07:53:03.219Z,21.11
2016-06-08T07:54:03.222Z,21.14
2016-06-08T07:55:03.334Z,21.17
2016-06-08T07:56:03.227Z,21.2
2016-06-08T07:57:03.201Z,21.14
2016-06-08T07:58:03.609Z,21.21
2016-06-08T07:59:03.097Z,21.17
2016-06-08T08:00:03.100Z,21.24
2016-06-08T08:01:03.445Z,21.24
2016-06-08T08:02:03.042Z,21.29
2016-06-08T08:03:03.373Z,21.24
2016-06-08T08:04:03.111Z,21.34
2016-06-08T08:05:03.097Z,21.34
2016-06-08T08:06:02.991Z,21.32
2016-06-08T08:07:02.962Z,21.41
2016-06-08T08:08:02.965Z,21.41
2016-06-08T08:09:02.922Z,21.36
2016-06-08T08:10:03.064Z,21.36
2016-06-08T08:11:02.989Z,21.45
2016-06-08T08:12:03.010Z,21.5
2016-06-08T08:13:04.606Z,21.45
2016-06-08T08:14:03.328Z,21.54
2016-06-08T08:15:02.838Z,21.51
2016-06-08T08:16:02.841Z,21.57
2016-06-08T08:17:02.843Z,21.56
2016-06-08T08:18:03.862Z,21.56
2016-06-08T08:19:03.521Z,21.61
2016-06-08T08:20:03.274Z,21.61
2016-06-08T08:21:02.995Z,21.71
2016-06-08T08:22:02.810Z,21.71
2016-06-08T08:23:02.875Z,21.69
2016-06-08T08:24:02.738Z,21.71
2016-06-08T08:25:02.850Z,21.79
2016-06-08T08:26:02.711Z,21.79
2016-06-08T08:27:02.808Z,21.9
2016-06-08T08:28:03.670Z,21.9
2016-06-08T08:29:02.626Z,21.94
2016-06-08T08:30:02.723Z,21.94
2016-06-08T08:31:02.615Z,21.94
2016-06-08T08:32:02.650Z,21.91
2016-06-08T08:33:02.683Z,21.95
2016-06-08T08:34:02.608Z,22.09
2016-06-08T08:35:02.642Z,22.06
2016-06-08T08:36:02.628Z,22.07
2016-06-08T08:37:02.678Z,22.1
2016-06-08T08:38:16.228Z,22.09
2016-06-08T08:39:16.200Z,22.1
2016-06-08T08:40:16.187Z,22.12
2016-06-08T08:41:16.486Z,22.29
2016-06-08T08:42:16.223Z,22.23
2016-06-08T08:43:16.164Z,22.35
2016-06-08T08:44:16.136Z,22.31
2016-06-08T08:45:02.731Z,22.32
2016-06-08T08:46:16.078Z,22.37
2016-06-08T08:47:16.346Z,22.35
2016-06-08T08:48:16.130Z,22.34
2016-06-08T08:49:15.851Z,22.35
2016-06-08T08:50:16.010Z,22.37
2016-06-08T08:51:15.997Z,22.46
2016-06-08T08:52:15.968Z,22.38
2016-06-08T08:53:02.721Z,22.47
2016-06-08T08:54:16.037Z,22.44
2016-06-08T08:55:15.914Z,22.53
2016-06-08T08:56:16.042Z,22.46
2016-06-08T08:57:15.935Z,22.53
2016-06-08T08:58:16.048Z,22.57
2016-06-08T08:59:17.051Z,22.54
2016-06-08T09:00:05.022Z,22.6
2016-06-08T09:01:15.836Z,22.53
2016-06-08T09:02:03.496Z,22.59
2016-06-08T09:03:15.905Z,22.62
2016-06-08T09:04:04.954Z,22.59
2016-06-08T09:05:05.254Z,22.62
2016-06-08T09:06:05.022Z,22.68
2016-06-08T09:07:10.994Z,22.65
2016-06-08T09:08:02.356Z,22.67
2016-06-08T09:09:02.717Z,22.56
2016-06-08T09:10:02.267Z,22.68
2016-06-08T09:11:02.770Z,22.67
2016-06-08T09:12:02.678Z,22.62
2016-06-08T09:13:02.697Z,22.69
2016-06-08T09:14:02.684Z,22.62
2016-06-08T09:15:02.000Z,22.75
2016-06-08T09:16:01.799Z,22.71
2016-06-08T09:17:01.708Z,22.72
2016-06-08T09:18:02.711Z,22.74
2016-06-08T09:19:01.729Z,22.69
2016-06-08T09:20:01.794Z,22.77
2016-06-08T09:21:01.578Z,22.8
2016-06-08T09:22:01.675Z,22.84
2016-06-08T09:23:01.646Z,22.87
2016-06-08T09:24:01.665Z,22.84
2016-06-08T09:25:01.745Z,22.87
2016-06-08T09:26:01.591Z,22.93
2016-06-08T09:27:01.657Z,22.93
2016-06-08T09:28:01.660Z,22.99
2016-06-08T09:29:16.615Z,22.96
2016-06-08T09:30:01.726Z,22.97
2016-06-08T09:31:01.559Z,22.94
2016-06-08T09:32:01.717Z,23.02
2016-06-08T09:33:01.501Z,22.99
2016-06-08T09:34:01.378Z,23.04
2016-06-08T09:35:01.647Z,22.94
2016-06-08T09:36:01.509Z,23.01
2016-06-08T09:37:01.699Z,22.99
2016-06-08T09:38:01.936Z,23.01
2016-06-08T09:39:01.689Z,22.97
2016-06-08T09:40:01.926Z,22.92
2016-06-08T09:41:02.132Z,22.93
2016-06-08T09:42:01.572Z,22.97
2016-06-08T09:43:01.809Z,22.99
2016-06-08T09:44:01.687Z,22.92
2016-06-08T09:45:01.737Z,22.94
2016-06-08T09:46:01.442Z,22.96
2016-06-08T09:47:01.758Z,22.97
2016-06-08T09:48:01.713Z,22.96
2016-06-08T09:49:01.716Z,22.97
2016-06-08T09:50:01.735Z,22.99
2016-06-08T09:51:01.627Z,23.05
2016-06-08T09:52:01.880Z,23.01
2016-06-08T09:53:01.742Z,23.09
2016-06-08T09:54:01.699Z,23.07
2016-06-08T09:55:01.701Z,23.17
2016-06-08T09:56:01.735Z,23.11
2016-06-08T09:57:01.659Z,23.09
2016-06-08T09:58:00.677Z,23.14
2016-06-08T09:59:00.712Z,23.17
2016-06-08T10:00:02.698Z,23.12
2016-06-08T10:01:00.795Z,23.11
2016-06-08T10:02:00.642Z,23.11
2016-06-08T10:03:00.848Z,23.04
2016-06-08T10:04:07.615Z,23.14
2016-06-08T10:05:04.009Z,23.12
2016-06-08T10:06:00.715Z,23.31
2016-06-08T10:07:00.718Z,23.26
2016-06-08T10:08:00.737Z,23.27
2016-06-08T10:09:01.769Z,23.32
2016-06-08T10:10:00.632Z,23.38
2016-06-08T10:11:00.666Z,23.39
2016-06-08T10:12:00.622Z,23.39
2016-06-08T10:13:00.656Z,23.31
2016-06-08T10:14:02.252Z,23.38
2016-06-08T10:15:01.520Z,23.39
2016-06-08T10:16:00.539Z,23.45
2016-06-08T10:17:00.620Z,23.42
2016-06-08T10:18:00.497Z,23.39
2016-06-08T10:19:00.468Z,23.39
2016-06-08T10:20:00.908Z,23.49
2016-06-08T10:21:00.505Z,23.49
2016-06-08T10:22:00.461Z,23.42
2016-06-08T10:23:00.432Z,23.43
2016-06-08T10:24:00.404Z,23.53
2016-06-08T10:25:00.406Z,23.47
2016-06-08T10:26:00.659Z,23.49
2016-06-08T10:27:00.459Z,23.55
2016-06-08T10:28:00.462Z,23.55
2016-06-08T10:29:00.761Z,23.55
2016-06-08T10:30:00.560Z,23.53
2016-06-08T10:31:00.423Z,23.62
2016-06-08T10:32:00.565Z,23.62
2016-06-08T10:33:00.194Z,23.62
2016-06-08T10:34:00.509Z,23.61
2016-06-08T10:35:00.496Z,23.71
2016-06-08T10:36:01.139Z,23.7
2016-06-08T10:37:01.001Z,23.75
2016-06-08T10:38:00.692Z,23.71
2016-06-08T10:39:01.788Z,23.77
2016-06-08T10:40:00.806Z,23.75
2016-06-08T10:41:00.528Z,23.86
2016-06-08T10:42:00.578Z,23.71
2016-06-08T10:43:00.892Z,23.75
2016-06-08T10:44:01.317Z,23.77
2016-06-08T10:45:05.664Z,23.85
2016-06-08T10:46:00.510Z,23.82
2016-06-08T10:46:59.809Z,23.86
2016-06-08T10:48:00.061Z,23.86
2016-06-08T10:49:14.002Z,23.95
2016-06-08T10:50:00.239Z,23.87
2016-06-08T10:51:01.602Z,23.89
2016-06-08T10:52:00.979Z,23.9
2016-06-08T10:53:03.966Z,23.87
2016-06-08T10:54:00.391Z,23.89
2016-06-08T10:55:00.769Z,23.83
2016-06-08T10:56:00.537Z,23.85
2016-06-08T10:57:00.882Z,23.85
2016-06-08T10:58:01.167Z,23.87
2016-06-08T11:00:10.485Z,23.86
2016-06-08T11:01:01.004Z,23.95
2016-06-08T11:02:03.975Z,23.95
2016-06-08T11:03:05.352Z,24
2016-06-08T11:04:13.996Z,24.07
2016-06-08T11:05:00.545Z,24.12
2016-06-08T11:06:00.079Z,24.07
2016-06-08T11:07:00.426Z,24.17
2016-06-08T11:08:00.616Z,24.24
2016-06-08T11:09:00.181Z,24.27
2016-06-08T11:10:00.965Z,24.13
2016-06-08T11:11:00.327Z,24.14
2016-06-08T11:12:13.892Z,24.29
2016-06-08T11:13:00.661Z,24.24
2016-06-08T11:14:06.538Z,24.34
2016-06-08T11:15:13.759Z,24.59
2016-06-08T11:16:03.200Z,24.53
2016-06-08T11:17:00.046Z,24.5
2016-06-08T11:18:13.517Z,24.42
2016-06-08T11:18:59.817Z,24.57
2016-06-08T11:19:59.882Z,24.61
2016-06-08T11:20:59.776Z,24.75
2016-06-08T11:22:01.420Z,24.75
2016-06-08T11:23:00.124Z,24.69
2016-06-08T11:24:00.238Z,24.64
2016-06-08T11:25:00.911Z,24.71
2016-06-08T11:26:01.055Z,24.79
2016-06-08T11:26:59.730Z,24.71
2016-06-08T11:29:00.001Z,24.52
2016-06-08T11:32:00.118Z,24.73
2016-06-08T11:33:00.215Z,24.82
2016-06-08T11:39:59.795Z,25.19
2016-06-08T11:41:16.284Z,25.32
2016-06-08T11:43:00.054Z,25.27
2016-06-08T11:44:01.259Z,25.19
2016-06-08T11:45:13.497Z,25.16
2016-06-08T11:47:00.425Z,25.32
2016-06-08T11:48:01.958Z,25.3
2016-06-08T11:48:58.742Z,25.38
2016-06-08T11:49:58.541Z,25.5
2016-06-08T11:52:02.234Z,25.62
2016-06-08T11:53:01.846Z,25.64
2016-06-08T11:53:58.802Z,25.56
2016-06-08T11:54:58.477Z,25.68
2016-06-08T11:55:58.869Z,25.71
2016-06-08T11:56:58.608Z,25.61
2016-06-08T11:58:02.282Z,25.69
2016-06-08T11:58:58.909Z,25.61
2016-06-08T12:00:02.302Z,25.43
2016-06-08T12:01:58.792Z,25.34
2016-06-08T12:03:58.595Z,25.17
2016-06-08T12:04:58.409Z,25.25
2016-06-08T12:05:58.413Z,25.37
2016-06-08T12:06:58.556Z,25.2
2016-06-08T12:08:58.546Z,25.43
2016-06-08T12:09:58.392Z,25.46
2016-06-08T12:11:58.898Z,25.72
2016-06-08T12:13:02.181Z,25.89
2016-06-08T12:13:58.997Z,26.08
2016-06-08T12:14:58.875Z,26.25
2016-06-08T12:15:59.783Z,26.44
2016-06-08T12:16:58.380Z,26.69
2016-06-08T12:17:58.679Z,26.81
2016-06-08T12:18:58.635Z,27.21
2016-06-08T12:19:58.653Z,27.46
2016-06-08T12:21:12.311Z,27.19
2016-06-08T12:21:58.424Z,26.95
2016-06-08T12:22:58.739Z,26.79
2016-06-08T12:23:58.383Z,26.62
2016-06-08T12:25:01.854Z,26.39
2016-06-08T12:25:58.107Z,26.31
2016-06-08T12:26:58.250Z,26.24
2016-06-08T12:27:58.300Z,26.08
2016-06-08T12:28:59.006Z,25.91
2016-06-08T12:29:58.368Z,25.9
2016-06-08T12:30:58.167Z,25.94
2016-06-08T12:31:58.186Z,26.05
2016-06-08T12:32:58.407Z,26.01
2016-06-08T12:33:58.519Z,25.99
2016-06-08T12:34:58.428Z,26.12
2016-06-08T12:35:58.493Z,26.2
2016-06-08T12:36:58.059Z,26.09
2016-06-08T12:37:58.467Z,26.25
2016-06-08T12:38:58.314Z,26.31
2016-06-08T12:39:58.707Z,26.32
2016-06-08T12:40:58.350Z,26.2
2016-06-08T12:41:58.525Z,26.24
2016-06-08T12:42:58.371Z,26.29
2016-06-08T12:43:58.109Z,26.35
2016-06-08T12:44:58.158Z,26.27
2016-06-08T12:45:57.989Z,26.37
2016-06-08T12:46:58.304Z,26.39
2016-06-08T12:47:57.994Z,26.31
2016-06-08T12:48:58.122Z,26.37
2016-06-08T12:50:01.969Z,26.36
2016-06-08T12:50:58.096Z,26.46
2016-06-08T12:51:57.770Z,26.74
2016-06-08T12:52:57.805Z,27.21
2016-06-08T12:53:57.869Z,27.38
2016-06-08T12:54:57.778Z,27.36
2016-06-08T12:55:58.000Z,27.41
2016-06-08T12:56:58.721Z,27.48
2016-06-08T12:57:58.256Z,27.67
2016-06-08T12:58:57.852Z,27.91
2016-06-08T13:00:01.886Z,27.76
2016-06-08T13:01:16.264Z,27.36
2016-06-08T13:01:57.938Z,27.21
2016-06-08T13:02:58.519Z,28.46
2016-06-08T13:03:57.693Z,29.15
2016-06-08T13:04:58.352Z,28.44
2016-06-08T13:05:57.715Z,28.81
2016-06-08T13:06:58.420Z,29.19
2016-06-08T13:07:58.235Z,29.23
2016-06-08T13:08:58.034Z,29.25
2016-06-08T13:09:58.100Z,29.18
2016-06-08T13:10:57.541Z,29.18
2016-06-08T13:11:57.762Z,29.19
2016-06-08T13:12:57.858Z,29.34
2016-06-08T13:13:57.689Z,29.1
2016-06-08T13:14:57.817Z,28.93